Time;durP1;ratioP1;P1;durP2;ratioP2;P2;SDS_P1;SDS_P2;PMS_P1;PMS_P2;Temp;Humidity;BMP_temperature;BMP_pressure;BME280_temperature;BME280_humidity;BME280_pressure;Samples;Min_cycle;Max_cycle;Signal;HPM_P1;HPM_P2
2022/09/02 00:01:45;;;;;;;;;9.00;7.00;;;;;23.96;38.01;100643.81;5096468;27;45325;-57
2022/09/02 00:04:16;;;;;;;;;7.50;5.00;;;;;23.95;38.18;100642.97;5092921;27;45446;-58
2022/09/02 00:06:43;;;;;;;;;5.50;5.50;;;;;23.91;37.96;100630.75;5091186;27;45476;-57
2022/09/02 00:09:12;;;;;;;;;8.50;7.50;;;;;23.93;37.94;100633.28;5103287;27;45451;-56
2022/09/02 00:11:39;;;;;;;;;6.00;6.00;;;;;23.91;38.44;100632.63;5097058;27;45498;-56
2022/09/02 00:14:09;;;;;;;;;5.25;5.25;;;;;23.92;38.20;100627.00;5081808;27;45427;-58
2022/09/02 00:16:35;;;;;;;;;6.25;6.25;;;;;23.92;38.39;100628.88;5097572;27;45615;-57
2022/09/02 00:19:03;;;;;;;;;6.75;5.25;;;;;23.89;38.47;100621.09;5095161;27;46487;-57
2022/09/02 00:21:31;;;;;;;;;9.00;7.00;;;;;23.85;38.91;100617.03;5095679;27;45433;-58
2022/09/02 00:23:57;;;;;;;;;9.25;8.25;;;;;23.83;38.98;100614.50;5094887;27;45255;-58
2022/09/02 00:26:23;;;;;;;;;8.25;7.00;;;;;23.79;38.71;100615.81;5097486;27;45572;-58
2022/09/02 00:28:48;;;;;;;;;9.50;8.50;;;;;23.72;38.74;100601.25;5096391;27;46021;-57
2022/09/02 00:31:14;;;;;;;;;10.00;9.00;;;;;23.76;39.44;100613.47;5095181;27;45624;-58
2022/09/02 00:33:40;;;;;;;;;11.25;10.00;;;;;23.76;38.96;100605.31;5096294;27;45270;-57
2022/09/02 00:36:06;;;;;;;;;11.00;11.00;;;;;23.75;39.06;100603.63;5096274;27;45471;-57
2022/09/02 00:38:34;;;;;;;;;10.50;8.00;;;;;23.75;39.28;100600.91;5095634;27;45491;-59
2022/09/02 00:41:04;;;;;;;;;16.00;13.33;;;;;23.71;39.10;100594.13;5092395;27;45410;-58
2022/09/02 00:43:50;;;;;;;;;9.25;8.25;;;;;23.68;39.54;100597.16;5088942;27;45711;-58
2022/09/02 00:46:17;;;;;;;;;7.25;7.25;;;;;23.67;39.29;100595.47;5109038;27;45571;-57
2022/09/02 00:48:52;;;;;;;;;13.33;10.67;;;;;23.63;39.69;100603.13;5076832;27;48281;-59
2022/09/02 00:51:17;;;;;;;;;10.00;10.00;;;;;23.61;40.08;100607.03;5096189;27;45332;-62
2022/09/02 00:53:47;;;;;;;;;7.50;6.50;;;;;23.55;40.09;100598.47;5099863;27;45559;-58
2022/09/02 00:56:21;;;;;;;;;9.50;8.00;;;;;23.53;39.84;100594.25;5099853;27;45570;-56
2022/09/02 00:58:49;;;;;;;;;9.25;8.00;;;;;23.54;40.43;100595.94;5097991;27;45891;-57
2022/09/02 01:01:15;;;;;;;;;7.25;7.25;;;;;23.54;40.02;100599.50;5099286;27;45421;-63
2022/09/02 01:03:40;;;;;;;;;9.67;9.67;;;;;23.51;40.31;100602.56;5099226;27;45246;-63
2022/09/02 01:06:09;;;;;;;;;10.00;8.33;;;;;23.51;40.21;100593.56;5100980;27;45824;-58
2022/09/02 01:08:38;;;;;;;;;5.00;5.00;;;;;23.50;40.28;100595.44;5099896;27;46108;-58
2022/09/02 01:11:05;;;;;;;;;9.00;9.00;;;;;23.49;40.54;100598.34;5098081;27;45176;-57
2022/09/02 01:13:37;;;;;;;;;6.50;6.50;;;;;23.43;40.78;100591.69;5085913;27;45489;-57
2022/09/02 01:16:10;;;;;;;;;8.75;8.00;;;;;23.41;40.88;100593.75;5097266;27;45361;-58
2022/09/02 01:18:37;;;;;;;;;8.75;8.25;;;;;23.33;41.17;100587.47;5099359;27;46208;-58
2022/09/02 01:21:03;;;;;;;;;7.50;7.50;;;;;23.37;40.78;100586.97;5094194;27;45222;-58
2022/09/02 01:23:30;;;;;;;;;5.75;5.75;;;;;23.42;40.98;100600.00;5099416;27;45376;-58
2022/09/02 01:25:56;;;;;;;;;9.00;9.00;;;;;23.36;40.92;100582.56;5098414;27;45332;-57
2022/09/02 01:28:22;;;;;;;;;11.00;11.00;;;;;23.39;40.58;100587.63;5110758;27;45434;-57
2022/09/02 01:30:52;;;;;;;;;8.33;8.33;;;;;23.37;41.21;100584.25;5096731;27;45380;-58
2022/09/02 01:33:20;;;;;;;;;7.50;7.50;;;;;23.36;41.00;100579.84;5079135;27;45322;-57
2022/09/02 01:35:45;;;;;;;;;11.00;10.00;;;;;23.37;41.41;100583.41;5098193;27;45555;-59
2022/09/02 01:38:11;;;;;;;;;9.33;9.33;;;;;23.38;40.83;100590.53;5094628;27;46043;-57
2022/09/02 01:40:37;;;;;;;;;8.50;8.00;;;;;23.28;41.11;100577.09;5111751;27;45535;-58
2022/09/02 01:43:09;;;;;;;;;10.50;9.00;;;;;23.33;41.10;100588.31;5105329;27;45471;-59
2022/09/02 01:45:37;;;;;;;;;6.25;6.25;;;;;23.35;41.11;100582.72;5098769;27;45222;-58
2022/09/02 01:48:04;;;;;;;;;7.75;7.75;;;;;23.34;40.94;100584.59;5096966;27;45417;-57
2022/09/02 01:50:30;;;;;;;;;10.75;9.00;;;;;23.36;41.00;100579.00;5096775;27;45462;-57
2022/09/02 01:52:57;;;;;;;;;9.75;9.75;;;;;23.34;41.26;100572.88;5099887;27;45352;-60
2022/09/02 01:55:22;;;;;;;;;7.50;7.25;;;;;23.38;41.64;100580.50;5095582;27;45419;-58
2022/09/02 01:57:48;;;;;;;;;9.75;9.50;;;;;23.36;41.12;100571.69;5096565;27;46141;-57
2022/09/02 02:00:15;;;;;;;;;7.25;7.25;;;;;23.34;41.41;100579.16;5101876;27;45454;-56
2022/09/02 02:02:41;;;;;;;;;8.75;8.75;;;;;23.34;41.62;100572.88;5097212;27;45245;-61
2022/09/02 02:05:06;;;;;;;;;10.25;10.25;;;;;23.30;41.76;100577.78;5098473;27;45582;-57
2022/09/02 02:07:32;;;;;;;;;7.00;7.00;;;;;23.34;41.25;100589.16;5098850;27;45902;-59
2022/09/02 02:09:57;;;;;;;;;10.75;9.75;;;;;23.33;41.48;100631.75;5098542;27;45447;-57
2022/09/02 02:12:23;;;;;;;;;7.25;7.25;;;;;23.25;41.61;100632.56;5097764;27;45472;-57
2022/09/02 02:14:48;;;;;;;;;10.00;8.67;;;;;23.28;41.32;100606.09;5095122;27;45614;-57
2022/09/02 02:17:13;;;;;;;;;9.00;9.00;;;;;23.24;41.98;100622.72;5097636;27;45403;-58
2022/09/02 02:19:39;;;;;;;;;7.25;7.25;;;;;23.24;42.02;100639.00;5098588;27;45361;-58
2022/09/02 02:22:05;;;;;;;;;10.75;10.75;;;;;23.21;41.56;100595.94;5098540;27;45433;-58
2022/09/02 02:24:30;;;;;;;;;7.00;6.75;;;;;23.16;41.39;100597.44;5098315;27;45373;-57
2022/09/02 02:26:56;;;;;;;;;7.00;7.00;;;;;23.21;41.51;100627.66;5096674;27;47171;-57
2022/09/02 02:29:22;;;;;;;;;6.75;6.75;;;;;23.16;41.66;100614.56;5096719;27;45418;-57
2022/09/02 02:31:48;;;;;;;;;10.67;10.33;;;;;23.22;41.69;100622.06;5094988;27;45537;-58
2022/09/02 02:34:13;;;;;;;;;11.00;9.67;;;;;23.22;41.96;100613.91;5085632;27;45267;-56
2022/09/02 02:36:39;;;;;;;;;12.00;10.00;;;;;23.16;41.88;100603.72;5095489;27;45420;-58
2022/09/02 02:39:07;;;;;;;;;8.00;8.00;;;;;23.21;41.36;100616.78;5097573;27;45327;-57
2022/09/02 02:41:33;;;;;;;;;8.25;8.25;;;;;23.14;41.92;100610.31;5091882;27;45339;-57
2022/09/02 02:43:58;;;;;;;;;6.75;5.50;;;;;23.16;42.16;100627.28;5098300;27;45557;-57
2022/09/02 02:46:24;;;;;;;;;8.00;8.00;;;;;23.10;42.49;100619.81;5090757;27;45452;-58
2022/09/02 02:48:49;;;;;;;;;10.33;10.33;;;;;23.08;42.53;100621.84;5093307;27;45894;-57
2022/09/02 02:51:15;;;;;;;;;10.00;10.00;;;;;23.02;42.77;100611.66;5095194;27;45484;-57
2022/09/02 02:53:40;;;;;;;;;9.33;9.33;;;;;22.99;43.02;100623.69;5101006;27;45437;-56
2022/09/02 02:56:07;;;;;;;;;9.00;9.00;;;;;22.92;43.18;100626.22;5096559;27;45807;-57
2022/09/02 02:58:33;;;;;;;;;13.00;13.00;;;;;22.84;43.42;100612.63;5098026;27;45170;-59
2022/09/02 03:00:59;;;;;;;;;19.00;17.33;;;;;22.80;43.62;100622.09;5097001;27;45495;-58
2022/09/02 03:03:25;;;;;;;;;23.00;22.67;;;;;22.75;43.51;100610.88;5090672;27;45349;-58
2022/09/02 03:05:51;;;;;;;;;22.33;21.00;;;;;22.72;44.05;100605.78;5095699;27;45455;-58
2022/09/02 03:08:19;;;;;;;;;24.67;24.67;;;;;22.61;44.42;100603.38;5098245;27;45403;-60
2022/09/02 03:10:46;;;;;;;;;34.00;28.67;;;;;22.47;44.42;100595.84;5097978;27;45431;-58
2022/09/02 03:13:14;;;;;;;;;29.00;29.00;;;;;22.50;45.06;100611.78;5097020;27;45214;-57
2022/09/02 03:15:40;;;;;;;;;20.67;20.67;;;;;22.42;45.47;100609.06;5103255;27;47354;-56
2022/09/02 03:18:06;;;;;;;;;22.00;21.00;;;;;22.34;45.93;100597.16;5114037;27;45229;-58
2022/09/02 03:20:32;;;;;;;;;20.33;17.00;;;;;22.34;46.31;100608.00;5095541;27;45496;-55
2022/09/02 03:22:58;;;;;;;;;19.33;17.67;;;;;22.24;47.32;100596.41;5100294;27;45685;-58
2022/09/02 03:25:26;;;;;;;;;16.00;14.33;;;;;22.18;47.12;100588.94;5096797;27;45538;-57
2022/09/02 03:27:52;;;;;;;;;17.00;14.67;;;;;22.18;47.64;100597.06;5097726;27;45468;-58
2022/09/02 03:30:26;;;;;;;;;12.00;12.00;;;;;22.12;48.37;100586.00;5095106;27;45389;-58
2022/09/02 03:32:53;;;;;;;;;13.00;11.33;;;;;22.08;48.07;100591.75;5094650;27;45652;-58
2022/09/02 03:35:20;;;;;;;;;15.67;14.33;;;;;22.08;48.27;100597.19;5097023;27;45546;-57
2022/09/02 03:37:46;;;;;;;;;13.00;11.67;;;;;22.04;48.36;100590.34;5087324;27;45338;-58
2022/09/02 03:40:16;;;;;;;;;13.00;13.00;;;;;22.02;48.29;100589.66;5078742;27;45383;-57
2022/09/02 03:42:41;;;;;;;;;14.00;14.00;;;;;21.95;48.12;100580.47;5108072;27;45239;-57
2022/09/02 03:45:09;;;;;;;;;15.67;15.33;;;;;21.87;48.55;100583.13;5097197;27;46154;-58
2022/09/02 03:47:35;;;;;;;;;22.67;22.00;;;;;21.83;48.70;100583.59;5095809;27;45346;-57
2022/09/02 03:50:01;;;;;;;;;37.33;33.67;;;;;21.79;49.40;100583.09;5091660;27;45455;-57
2022/09/02 03:52:27;;;;;;;;;35.67;31.33;;;;;21.71;50.54;100583.84;5100380;27;45703;-58
2022/09/02 03:54:52;;;;;;;;;21.33;21.33;;;;;21.62;51.63;100574.00;5096723;27;45426;-58
2022/09/02 03:57:19;;;;;;;;;26.33;22.00;;;;;21.57;51.96;100568.19;5096337;27;45420;-57
2022/09/02 03:59:45;;;;;;;;;19.00;17.67;;;;;21.44;52.73;100560.47;5096510;27;45451;-57
2022/09/02 04:02:10;;;;;;;;;18.00;15.00;;;;;21.34;52.99;100546.19;5096260;27;45357;-57
2022/09/02 04:04:35;;;;;;;;;13.33;11.67;;;;;21.36;53.82;100554.19;5096429;27;46297;-58
2022/09/02 04:07:01;;;;;;;;;15.00;15.00;;;;;21.30;53.87;100555.63;5095784;27;46106;-56
2022/09/02 04:09:26;;;;;;;;;18.33;16.33;;;;;21.33;53.47;100554.47;5095207;27;45333;-57
2022/09/02 04:11:52;;;;;;;;;15.00;14.00;;;;;21.32;54.04;100560.88;5089616;27;45606;-57
2022/09/02 04:14:17;;;;;;;;;12.67;12.67;;;;;21.36;53.92;100559.59;5084409;27;45468;-58
2022/09/02 04:16:43;;;;;;;;;12.67;12.00;;;;;21.23;55.34;100556.41;5086726;27;45413;-57
2022/09/02 04:19:08;;;;;;;;;14.67;12.00;;;;;21.13;55.20;100557.31;5096985;27;45293;-57
2022/09/02 04:21:37;;;;;;;;;10.00;10.00;;;;;21.12;56.50;100571.84;5110685;27;45619;-59
2022/09/02 04:24:04;;;;;;;;;15.67;12.67;;;;;21.08;56.97;100562.31;5094697;27;45384;-57
2022/09/02 04:26:30;;;;;;;;;10.00;10.00;;;;;21.04;56.38;100569.03;5095586;27;45527;-57
2022/09/02 04:28:55;;;;;;;;;11.67;11.67;;;;;21.07;56.50;100566.03;5093795;27;45527;-57
2022/09/02 04:31:24;;;;;;;;;11.33;11.33;;;;;21.06;57.15;100567.03;5091463;27;45455;-56
2022/09/02 04:33:50;;;;;;;;;10.00;10.00;;;;;21.03;57.45;100561.09;5092122;27;45344;-58
2022/09/02 04:36:18;;;;;;;;;12.00;12.00;;;;;21.04;57.54;100560.09;5094189;27;45252;-58
2022/09/02 04:38:45;;;;;;;;;14.33;14.33;;;;;21.01;57.25;100558.56;5082268;27;45614;-57
2022/09/02 04:41:16;;;;;;;;;23.00;19.33;;;;;21.08;57.29;100553.34;5091686;27;45656;-57
2022/09/02 04:43:42;;;;;;;;;16.67;14.00;;;;;21.08;57.68;100554.22;5094614;27;45621;-58
2022/09/02 04:46:10;;;;;;;;;16.00;13.33;;;;;21.12;57.67;100560.19;5098083;27;45952;-57
2022/09/02 04:48:36;;;;;;;;;17.67;13.67;;;;;21.11;58.04;100553.91;5092369;27;45522;-57
2022/09/02 04:51:11;;;;;;;;;9.67;9.67;;;;;21.06;57.80;100550.81;5088916;27;45495;-57
2022/09/02 04:53:38;;;;;;;;;12.67;12.00;;;;;21.13;57.41;100576.25;5096928;27;46165;-56
2022/09/02 04:56:08;;;;;;;;;12.00;11.00;;;;;21.09;58.47;100585.66;5095811;27;45506;-57
2022/09/02 04:58:34;;;;;;;;;14.33;12.67;;;;;20.92;61.56;100581.09;5095354;27;45933;-57
2022/09/02 05:01:08;;;;;;;;;11.00;9.33;;;;;20.81;61.66;100573.19;5097933;27;45420;-58
2022/09/02 05:03:34;;;;;;;;;19.67;19.67;;;;;20.67;62.28;100565.59;5083155;27;45561;-56
2022/09/02 05:06:03;;;;;;;;;20.33;18.00;;;;;20.64;64.15;100557.81;5091253;27;45461;-57
2022/09/02 05:08:28;;;;;;;;;17.33;17.33;;;;;20.63;64.72;100558.81;5095926;27;45261;-57
2022/09/02 05:10:54;;;;;;;;;16.67;11.00;;;;;20.66;64.72;100556.66;5094720;27;45509;-58
2022/09/02 05:13:19;;;;;;;;;20.33;16.67;;;;;20.64;63.87;100552.41;5094950;27;46062;-58
2022/09/02 05:15:44;;;;;;;;;17.33;15.67;;;;;20.52;64.68;100540.94;5094854;27;45598;-60
2022/09/02 05:18:11;;;;;;;;;13.33;13.33;;;;;20.51;65.36;100540.09;5094850;27;45483;-58
2022/09/02 05:20:41;;;;;;;;;17.67;16.33;;;;;20.44;66.69;100551.66;5093614;27;45647;-58
2022/09/02 05:23:07;;;;;;;;;14.33;14.00;;;;;20.41;65.54;100560.88;5099215;27;47278;-57
2022/09/02 05:25:33;;;;;;;;;17.67;14.00;;;;;20.38;65.19;100558.47;5109311;27;45459;-57
2022/09/02 05:27:58;;;;;;;;;15.00;13.00;;;;;20.28;64.59;100554.97;5093731;27;45417;-58
2022/09/02 05:30:23;;;;;;;;;19.00;14.00;;;;;20.23;63.39;100543.78;5094597;27;45609;-57
2022/09/02 05:32:49;;;;;;;;;17.00;14.00;;;;;20.16;65.79;100543.50;5094255;27;54053;-60
2022/09/02 05:35:15;;;;;;;;;15.00;15.00;;;;;20.13;64.89;100556.47;5095191;27;45434;-58
2022/09/02 05:37:41;;;;;;;;;13.33;12.00;;;;;19.95;65.08;100532.97;5096874;27;45337;-53
2022/09/02 05:40:07;;;;;;;;;14.33;14.33;;;;;20.05;65.97;100570.69;5093352;27;45503;-60
2022/09/02 05:42:32;;;;;;;;;16.33;15.67;;;;;20.04;65.50;100566.28;5093989;27;46879;-61
2022/09/02 05:44:58;;;;;;;;;16.00;16.00;;;;;19.96;65.30;100568.91;5099583;27;45367;-60
2022/09/02 05:47:26;;;;;;;;;18.33;15.33;;;;;19.91;65.51;100563.91;5102789;27;45970;-58
2022/09/02 05:49:52;;;;;;;;;16.33;16.33;;;;;19.88;65.06;100556.13;5099155;27;45468;-57
2022/09/02 05:52:17;;;;;;;;;12.00;12.00;;;;;19.76;63.99;100546.50;5079245;27;46019;-62
2022/09/02 05:54:43;;;;;;;;;14.33;12.00;;;;;19.84;63.93;100560.13;5110542;27;45786;-60
2022/09/02 05:57:14;;;;;;;;;14.67;14.67;;;;;19.85;63.91;100542.06;5090211;27;45472;-63
2022/09/02 05:59:41;;;;;;;;;18.00;14.33;;;;;19.78;64.21;100540.94;5097445;27;45330;-58
2022/09/02 06:02:11;;;;;;;;;17.00;15.00;;;;;19.78;63.65;100546.34;5097630;27;45926;-62
2022/09/02 06:04:43;;;;;;;;;18.00;15.67;;;;;19.74;64.44;100546.66;5101570;27;45365;-61
2022/09/02 06:07:09;;;;;;;;;15.33;13.33;;;;;19.71;63.98;100554.19;5098283;27;45480;-59
2022/09/02 06:09:35;;;;;;;;;14.00;14.00;;;;;19.68;64.45;100543.69;5094101;27;46115;-57
2022/09/02 06:12:00;;;;;;;;;13.00;11.33;;;;;19.68;64.25;100551.78;5096904;27;46592;-59
2022/09/02 06:14:26;;;;;;;;;19.00;15.33;;;;;19.69;63.22;100543.53;5087539;27;45427;-60
2022/09/02 06:16:54;;;;;;;;;16.67;16.00;;;;;19.72;64.69;100559.44;5095271;27;45459;-58
2022/09/02 06:19:21;;;;;;;;;18.67;16.00;;;;;19.65;63.75;100546.66;5082579;27;45501;-60
2022/09/02 06:21:48;;;;;;;;;19.00;17.00;;;;;19.72;63.80;100556.75;5091212;27;48016;-59
2022/09/02 06:24:14;;;;;;;;;18.67;17.67;;;;;19.67;64.17;100555.47;5094041;27;45265;-59
2022/09/02 06:26:40;;;;;;;;;14.67;14.67;;;;;19.63;64.56;100548.66;5097254;27;45342;-58
2022/09/02 06:29:08;;;;;;;;;16.67;15.33;;;;;19.60;64.08;100548.94;5080043;27;45270;-59
2022/09/02 06:31:33;;;;;;;;;15.00;14.67;;;;;19.60;64.46;100549.81;5079325;27;47445;-58
2022/09/02 06:33:59;;;;;;;;;13.33;12.00;;;;;19.60;64.31;100546.25;5094749;27;45598;-58
2022/09/02 06:36:28;;;;;;;;;16.00;16.00;;;;;19.63;64.00;100543.25;5078085;27;45398;-59
2022/09/02 06:38:56;;;;;;;;;11.00;10.00;;;;;19.64;63.77;100539.56;5084640;27;45820;-58
2022/09/02 06:41:28;;;;;;;;;17.00;17.00;;;;;19.65;62.84;100543.97;5097826;27;45703;-59
2022/09/02 06:43:59;;;;;;;;;15.33;15.33;;;;;19.76;63.23;100560.00;5100264;27;45475;-58
2022/09/02 06:46:27;;;;;;;;;15.00;14.00;;;;;19.80;63.20;100561.41;5097786;27;45375;-59
2022/09/02 06:48:52;;;;;;;;;18.67;14.33;;;;;19.83;62.67;100555.72;5078774;27;45321;-58
2022/09/02 06:51:33;;;;;;;;;16.00;15.00;;;;;19.81;63.25;100546.06;5081302;27;45394;-60
2022/09/02 06:53:59;;;;;;;;;14.67;14.00;;;;;19.78;62.76;100549.91;5098449;27;45402;-58
2022/09/02 06:56:25;;;;;;;;;17.00;16.33;;;;;19.85;63.01;100553.72;5102376;27;45387;-59
2022/09/02 06:58:51;;;;;;;;;13.00;13.00;;;;;19.89;62.21;100541.63;5094289;27;45466;-59
2022/09/02 07:01:25;;;;;;;;;17.33;14.00;;;;;19.93;62.25;100534.97;5098032;27;45259;-58
2022/09/02 07:06:37;;;;;;;;;15.67;12.00;;;;;19.90;62.18;100534.38;5093443;27;45581;-58
2022/09/02 07:09:05;;;;;;;;;13.67;12.67;;;;;19.95;61.96;100532.09;5086183;27;45544;-57
2022/09/02 07:11:31;;;;;;;;;11.00;11.00;;;;;19.96;61.85;100534.66;5076984;27;47289;-58
2022/09/02 07:14:00;;;;;;;;;13.67;13.00;;;;;19.97;61.54;100533.66;5081883;27;45230;-59
2022/09/02 07:16:27;;;;;;;;;14.33;14.33;;;;;19.99;61.37;100537.06;5097984;27;45488;-58
2022/09/02 07:18:53;;;;;;;;;16.33;15.67;;;;;19.98;60.73;100538.06;5097690;27;45529;-61
2022/09/02 07:21:19;;;;;;;;;13.33;13.33;;;;;20.00;60.98;100524.41;5099131;27;46925;-57
2022/09/02 07:23:44;;;;;;;;;21.67;16.67;;;;;20.12;60.07;100536.72;5098023;27;45267;-60
2022/09/02 07:26:12;;;;;;;;;17.33;17.33;;;;;20.13;60.35;100534.88;5097877;27;45285;-59
2022/09/02 07:28:38;;;;;;;;;9.33;9.33;;;;;20.20;59.41;100531.44;5098098;27;45266;-58
2022/09/02 07:31:08;;;;;;;;;11.67;11.67;;;;;20.24;59.39;100531.97;5097836;27;46020;-62
2022/09/02 07:33:35;;;;;;;;;16.67;15.00;;;;;20.19;59.50;100518.09;5098140;27;45337;-58
2022/09/02 07:36:03;;;;;;;;;14.00;13.00;;;;;20.18;59.54;100519.06;5096598;27;45423;-59
2022/09/02 07:38:29;;;;;;;;;13.67;13.67;;;;;20.18;59.50;100521.75;5097518;27;45546;-59
2022/09/02 07:40:55;;;;;;;;;15.33;14.67;;;;;20.21;58.91;100524.19;5097471;27;45415;-59
2022/09/02 07:43:20;;;;;;;;;13.67;12.00;;;;;20.30;59.10;100525.97;5097663;27;45321;-58
2022/09/02 07:45:46;;;;;;;;;14.33;13.00;;;;;20.36;59.12;100536.19;5097919;27;45419;-58
2022/09/02 07:48:11;;;;;;;;;16.67;15.00;;;;;20.39;58.25;100525.06;5097974;27;45321;-57
2022/09/02 07:50:37;;;;;;;;;16.00;14.00;;;;;20.35;58.60;100522.84;5097118;27;45461;-57
2022/09/02 07:53:05;;;;;;;;;13.33;13.33;;;;;20.21;58.02;100508.81;5097292;27;45261;-58
2022/09/02 07:55:31;;;;;;;;;17.00;15.67;;;;;20.47;57.62;100540.56;5097245;27;45302;-58
2022/09/02 07:57:57;;;;;;;;;17.00;13.00;;;;;20.54;56.62;100537.09;5097287;27;45492;-58
2022/09/02 08:00:26;;;;;;;;;12.67;12.67;;;;;20.53;56.73;100527.28;5093881;27;45422;-59
2022/09/02 08:02:53;;;;;;;;;13.33;12.67;;;;;20.65;56.36;100546.00;5093868;27;45435;-59
2022/09/02 08:05:19;;;;;;;;;17.67;16.67;;;;;20.61;56.02;100532.78;5096625;27;45170;-58
2022/09/02 08:07:45;;;;;;;;;13.67;13.00;;;;;20.76;55.62;100543.94;5093331;27;45639;-59
2022/09/02 08:10:11;;;;;;;;;15.33;14.33;;;;;20.80;55.31;100550.72;5082805;27;46089;-58
2022/09/02 08:12:39;;;;;;;;;12.67;12.00;;;;;20.84;55.37;100557.53;5082554;27;45428;-58
2022/09/02 08:15:06;;;;;;;;;18.67;15.33;;;;;20.88;54.92;100555.38;5092413;27;45494;-56
2022/09/02 08:17:32;;;;;;;;;15.67;14.33;;;;;20.87;54.50;100549.13;5093527;27;45597;-57
2022/09/02 08:19:57;;;;;;;;;14.00;13.00;;;;;20.96;53.99;100555.44;5096986;27;45854;-59
2022/09/02 08:22:24;;;;;;;;;12.00;12.00;;;;;21.00;53.88;100562.25;5091311;27;45448;-58
2022/09/02 08:24:50;;;;;;;;;14.67;13.67;;;;;21.04;53.58;100554.69;5095708;27;45424;-58
2022/09/02 08:27:15;;;;;;;;;17.00;14.00;;;;;21.00;53.23;100550.59;5094104;27;45574;-58
2022/09/02 08:29:41;;;;;;;;;20.00;14.67;;;;;21.04;53.24;100562.78;5089534;27;45857;-57
2022/09/02 08:32:06;;;;;;;;;12.00;11.00;;;;;21.04;53.18;100563.63;5077541;27;45966;-60
2022/09/02 08:34:32;;;;;;;;;14.00;12.00;;;;;21.05;53.50;100583.41;5092797;27;45636;-59
2022/09/02 08:36:57;;;;;;;;;18.00;15.00;;;;;21.15;53.32;100614.78;5084442;27;45541;-58
2022/09/02 08:39:24;;;;;;;;;12.00;12.00;;;;;21.17;53.17;100611.94;5097968;27;46013;-58
2022/09/02 08:41:58;;;;;;;;;16.67;13.00;;;;;21.13;53.24;100627.63;5105313;27;45407;-60
2022/09/02 08:44:24;;;;;;;;;16.00;15.00;;;;;21.07;53.62;100628.22;5097911;27;45504;-60
2022/09/02 08:46:55;;;;;;;;;18.00;13.00;;;;;21.09;53.36;100641.59;5097365;27;45588;-60
2022/09/02 08:49:30;;;;;;;;;13.00;12.00;;;;;21.07;53.17;100621.97;5084873;27;46706;-59
2022/09/02 08:51:58;;;;;;;;;13.00;13.00;;;;;21.14;53.78;100621.22;5096607;27;44850;-63
2022/09/02 08:54:35;;;;;;;;;17.00;16.00;;;;;21.18;53.93;100624.44;5096984;27;45291;-60
2022/09/02 08:57:00;;;;;;;;;15.67;14.00;;;;;21.14;54.37;100620.38;5099030;27;45477;-59
2022/09/02 08:59:30;;;;;;;;;15.00;13.67;;;;;21.14;55.03;100636.59;5098894;27;47162;-58
2022/09/02 09:02:03;;;;;;;;;17.00;16.00;;;;;21.12;55.17;100630.50;5118398;27;45279;-59
2022/09/02 09:04:43;;;;;;;;;15.67;14.00;;;;;21.13;55.52;100619.50;5102195;27;45404;-61
2022/09/02 09:07:19;;;;;;;;;15.33;15.33;;;;;21.13;56.09;100616.81;5116813;27;45541;-60
2022/09/02 09:10:00;;;;;;;;;18.00;16.33;;;;;21.11;56.48;100626.94;5116981;27;45406;-67
2022/09/02 09:13:07;;;;;;;;;16.00;16.00;;;;;21.10;58.55;100625.25;5128713;27;45402;-62
2022/09/02 09:15:51;;;;;;;;;12.00;12.00;;;;;21.10;58.83;100621.69;5059831;27;45559;-65
2022/09/02 09:18:22;;;;;;;;;24.33;19.67;;;;;21.08;59.81;100619.09;5079478;28;45417;-62
2022/09/02 09:20:48;;;;;;;;;19.67;19.67;;;;;21.04;60.50;100627.69;5095707;27;45997;-65
2022/09/02 09:23:24;;;;;;;;;18.00;14.33;;;;;21.04;59.91;100617.72;5097853;27;45538;-62
2022/09/02 09:25:54;;;;;;;;;18.67;18.67;;;;;21.13;58.83;100613.25;5120667;27;45455;-61
2022/09/02 09:28:20;;;;;;;;;15.67;14.33;;;;;21.26;58.89;100599.38;5102798;27;45464;-64
2022/09/02 09:30:45;;;;;;;;;16.33;16.33;;;;;21.33;60.10;100612.13;5099140;27;45442;-63
2022/09/02 09:33:15;;;;;;;;;16.00;15.67;;;;;21.31;59.77;100608.72;5099032;27;45493;-65
2022/09/02 09:35:51;;;;;;;;;15.00;15.00;;;;;21.44;57.63;100603.78;5097943;27;45374;-63
2022/09/02 09:38:29;;;;;;;;;17.67;17.67;;;;;21.59;57.04;100606.75;5086428;27;45629;-63
2022/09/02 09:41:15;;;;;;;;;19.00;19.00;;;;;21.67;58.11;100609.56;5085109;27;45424;-64
2022/09/02 09:43:43;;;;;;;;;19.00;19.00;;;;;21.66;59.19;100613.28;5098979;27;45430;-62
2022/09/02 09:46:25;;;;;;;;;18.00;17.67;;;;;21.68;57.42;100599.56;5107207;27;45379;-59
2022/09/02 09:48:50;;;;;;;;;20.33;19.00;;;;;21.65;58.04;100594.47;5118505;27;45505;-65
2022/09/02 09:51:16;;;;;;;;;19.67;19.33;;;;;21.72;57.77;100574.72;5119089;27;45456;-62
2022/09/02 09:53:42;;;;;;;;;24.00;21.67;;;;;21.92;57.98;100583.50;5112030;27;45888;-63
2022/09/02 09:56:13;;;;;;;;;21.00;19.67;;;;;22.08;56.05;100585.50;5095365;27;45429;-65
2022/09/02 09:58:39;;;;;;;;;22.33;21.33;;;;;22.25;56.99;100581.84;5099432;27;45291;-59
2022/09/02 10:01:20;;;;;;;;;21.00;19.00;;;;;22.35;54.91;100581.75;5104157;27;47520;-60
2022/09/02 10:03:53;;;;;;;;;19.00;19.00;;;;;22.45;54.98;100573.50;5119692;27;45376;-59
2022/09/02 10:06:22;;;;;;;;;21.33;20.00;;;;;22.66;54.52;100587.47;5118597;27;45249;-58
2022/09/02 10:08:53;;;;;;;;;19.33;16.67;;;;;22.76;53.83;100569.19;5119846;27;45574;-61
2022/09/02 10:11:28;;;;;;;;;24.67;21.00;;;;;22.98;52.72;100580.47;5119460;27;45286;-62
2022/09/02 10:14:07;;;;;;;;;25.00;22.00;;;;;22.99;52.74;100574.03;5119275;27;45339;-59
2022/09/02 10:16:41;;;;;;;;;18.33;17.00;;;;;22.82;52.58;100559.56;5119039;27;45383;-60
2022/09/02 10:19:15;;;;;;;;;22.00;19.00;;;;;22.89;53.91;100566.88;5119122;27;45217;-58
2022/09/02 10:22:22;;;;;;;;;23.67;20.33;;;;;23.00;53.18;100570.28;5096374;27;46478;-58
2022/09/02 10:25:06;;;;;;;;;25.67;22.33;;;;;23.04;53.38;100567.06;5078146;27;45590;-58
2022/09/02 10:28:02;;;;;;;;;25.67;22.67;;;;;23.16;52.72;100562.16;5078273;27;45392;-60
2022/09/02 10:30:48;;;;;;;;;19.33;18.33;;;;;23.22;51.99;100558.81;5097617;27;45492;-58
2022/09/02 10:33:29;;;;;;;;;25.67;25.00;;;;;23.27;52.54;100559.13;5097045;27;46339;-61
2022/09/02 10:36:13;;;;;;;;;24.00;21.67;;;;;23.33;52.90;100561.19;5097258;27;45425;-58
2022/09/02 10:38:45;;;;;;;;;23.67;22.00;;;;;23.33;51.90;100554.91;5100009;27;45213;-61
2022/09/02 10:41:26;;;;;;;;;22.33;21.33;;;;;23.29;52.27;100556.25;5099041;27;45529;-59
2022/09/02 10:44:12;;;;;;;;;23.33;22.00;;;;;23.30;52.52;100550.66;5098964;27;45764;-61
2022/09/02 10:47:09;;;;;;;;;21.00;21.00;;;;;23.37;51.94;100546.25;5096920;27;45421;-63
2022/09/02 10:49:43;;;;;;;;;22.33;19.00;;;;;23.43;51.58;100550.97;5098107;27;45442;-62
2022/09/02 10:52:42;;;;;;;;;20.33;20.00;;;;;23.48;51.14;100548.63;5098000;27;45609;-61
2022/09/02 10:55:20;;;;;;;;;21.67;20.67;;;;;23.55;50.91;100540.63;5097909;27;45344;-61
2022/09/02 10:57:53;;;;;;;;;25.33;24.00;;;;;23.56;51.28;100542.31;5098138;27;45748;-59
2022/09/02 11:00:19;;;;;;;;;20.33;19.33;;;;;23.62;51.01;100543.56;5097880;27;45236;-59
2022/09/02 11:03:03;;;;;;;;;26.00;22.67;;;;;23.64;51.33;100541.50;5098071;27;45243;-61
2022/09/02 11:05:38;;;;;;;;;28.00;26.00;;;;;23.58;52.55;100543.06;5097759;27;45303;-61
2022/09/02 11:08:16;;;;;;;;;24.00;23.00;;;;;23.49;51.89;100538.63;5097876;27;45212;-61
2022/09/02 11:11:12;;;;;;;;;21.33;21.33;;;;;23.38;51.65;100537.09;5079462;27;45394;-59
2022/09/02 11:13:45;;;;;;;;;27.00;23.33;;;;;23.40;52.34;100545.91;5090104;27;45532;-60
2022/09/02 11:16:18;;;;;;;;;23.00;20.00;;;;;23.40;52.31;100535.03;5097693;27;45283;-61
2022/09/02 11:18:59;;;;;;;;;24.33;23.00;;;;;23.39;51.76;100535.22;5098107;27;45329;-60
2022/09/02 11:21:49;;;;;;;;;26.00;25.00;;;;;23.35;52.10;100542.00;5098366;27;45424;-60
2022/09/02 11:24:29;;;;;;;;;31.00;25.33;;;;;23.28;52.28;100533.69;5097784;27;45298;-58